Time;durP1;ratioP1;P1;durP2;ratioP2;P2;SDS_P1;SDS_P2;PMS_P1;PMS_P2;Temp;Humidity;BMP_temperature;BMP_pressure;BME280_temperature;BME280_humidity;BME280_pressure;Samples;Min_cycle;Max_cycle;Signal;HPM_P1;HPM_P2
2021/10/21 00:00:10;;;;;;;3.60;2.40;;;;;;;;;;5074543;28;20024;-71
2021/10/21 00:02:38;;;;;;;2.55;2.35;;;;;;;;;;5074616;28;20024;-71
2021/10/21 00:05:06;;;;;;;3.33;3.03;;;;;;;;;;5073777;28;20025;-71
2021/10/21 00:07:33;;;;;;;2.60;2.50;;;;;;;;;;5074557;28;20017;-70
2021/10/21 00:10:02;;;;;;;2.92;2.75;;;;;;;;;;5074449;28;20024;-71
2021/10/21 00:12:30;;;;;;;2.50;2.30;;;;;;;;;;5074298;28;20031;-70
2021/10/21 00:14:57;;;;;;;4.53;2.60;;;;;;;;;;5074401;28;20036;-72
2021/10/21 00:17:24;;;;;;;2.60;2.40;;;;;;;;;;5073907;28;20520;-70
2021/10/21 00:19:51;;;;;;;2.50;2.30;;;;;;;;;;5073998;28;20028;-69
2021/10/21 00:22:18;;;;;;;2.03;1.92;;;;;;;;;;5072962;28;20048;-68
2021/10/21 00:24:46;;;;;;;2.05;1.80;;;;;;;;;;5073997;28;20515;-68
2021/10/21 00:27:13;;;;;;;2.63;1.80;;;;;;;;;;5074135;28;20100;-68
2021/10/21 00:29:40;;;;;;;2.22;2.03;;;;;;;;;;5073818;28;20025;-68
2021/10/21 00:32:07;;;;;;;3.03;2.08;;;;;;;;;;5073881;28;20032;-70
2021/10/21 00:34:35;;;;;;;2.40;2.20;;;;;;;;;;5073855;28;20103;-70
2021/10/21 00:37:02;;;;;;;2.55;2.33;;;;;;;;;;5073776;28;20082;-70
2021/10/21 00:39:29;;;;;;;2.40;2.20;;;;;;;;;;5073630;28;20029;-69
2021/10/21 00:41:57;;;;;;;3.08;2.22;;;;;;;;;;5072277;28;20494;-71
2021/10/21 00:44:24;;;;;;;2.72;2.40;;;;;;;;;;5073781;28;20036;-70
2021/10/21 00:46:51;;;;;;;2.42;2.17;;;;;;;;;;5073398;28;20016;-73
2021/10/21 00:49:18;;;;;;;2.40;2.20;;;;;;;;;;5072317;28;20111;-72
2021/10/21 00:51:45;;;;;;;2.70;2.50;;;;;;;;;;5073432;28;20409;-72
2021/10/21 00:54:13;;;;;;;3.08;2.80;;;;;;;;;;5072162;28;20028;-71
2021/10/21 00:56:41;;;;;;;2.80;2.60;;;;;;;;;;5073354;28;20021;-70
2021/10/21 00:59:08;;;;;;;3.08;2.40;;;;;;;;;;5071938;28;20036;-71
2021/10/21 01:01:36;;;;;;;2.92;2.42;;;;;;;;;;5073292;28;20095;-73
2021/10/21 01:04:04;;;;;;;2.85;2.65;;;;;;;;;;5073058;28;20025;-73
2021/10/21 01:06:32;;;;;;;3.80;2.30;;;;;;;;;;5072274;28;20017;-73
2021/10/21 01:09:02;;;;;;;4.18;2.40;;;;;;;;;;5073556;28;20024;-74
2021/10/21 01:11:29;;;;;;;3.07;1.97;;;;;;;;;;5073317;28;20388;-73
2021/10/21 01:13:56;;;;;;;2.25;2.00;;;;;;;;;;5073205;28;20081;-72
2021/10/21 01:16:23;;;;;;;2.00;1.90;;;;;;;;;;5072739;28;20100;-73
2021/10/21 01:18:51;;;;;;;2.97;2.20;;;;;;;;;;5072744;28;20078;-73
2021/10/21 01:21:18;;;;;;;2.55;2.35;;;;;;;;;;5071743;28;20065;-73
2021/10/21 01:23:45;;;;;;;2.88;2.67;;;;;;;;;;5071821;28;20501;-73
2021/10/21 01:26:13;;;;;;;2.60;2.40;;;;;;;;;;5071742;28;20035;-73
2021/10/21 01:28:41;;;;;;;2.35;2.20;;;;;;;;;;5073170;28;20362;-73
2021/10/21 01:31:08;;;;;;;2.63;2.42;;;;;;;;;;5073188;28;20025;-73
2021/10/21 01:33:36;;;;;;;3.00;2.30;;;;;;;;;;5073136;28;20028;-73
2021/10/21 01:36:04;;;;;;;2.17;2.05;;;;;;;;;;5071769;28;20017;-73
2021/10/21 01:38:31;;;;;;;2.67;2.42;;;;;;;;;;5072861;28;20024;-73
2021/10/21 01:40:59;;;;;;;3.75;2.10;;;;;;;;;;5071577;28;20431;-74
2021/10/21 01:43:26;;;;;;;2.13;1.92;;;;;;;;;;5072856;28;20012;-73
2021/10/21 01:45:53;;;;;;;2.10;2.00;;;;;;;;;;5072841;28;20053;-73
2021/10/21 01:48:21;;;;;;;2.67;2.20;;;;;;;;;;5071401;28;20115;-72
2021/10/21 01:50:48;;;;;;;3.78;3.35;;;;;;;;;;5072789;28;20050;-73
2021/10/21 01:53:16;;;;;;;2.75;2.10;;;;;;;;;;5072978;28;20025;-73
2021/10/21 01:55:43;;;;;;;2.50;2.30;;;;;;;;;;5072784;28;20028;-72
2021/10/21 01:58:10;;;;;;;3.50;2.50;;;;;;;;;;5072765;28;20055;-74
2021/10/21 02:00:38;;;;;;;2.22;2.10;;;;;;;;;;5072627;28;20029;-74
2021/10/21 02:03:05;;;;;;;3.05;2.30;;;;;;;;;;5071471;28;20020;-75
2021/10/21 02:05:32;;;;;;;2.60;2.42;;;;;;;;;;5072595;28;20393;-74
2021/10/21 02:07:59;;;;;;;3.22;2.92;;;;;;;;;;5072645;28;20024;-75
2021/10/21 02:10:26;;;;;;;9.27;2.85;;;;;;;;;;5072517;28;20028;-75
2021/10/21 02:12:53;;;;;;;3.45;3.13;;;;;;;;;;5071245;28;20035;-74
2021/10/21 02:15:21;;;;;;;2.92;2.70;;;;;;;;;;5072381;28;20031;-76
2021/10/21 02:17:48;;;;;;;3.90;3.15;;;;;;;;;;5071841;28;20052;-77
2021/10/21 02:20:16;;;;;;;3.38;2.75;;;;;;;;;;5073238;28;20055;-78
2021/10/21 02:22:45;;;;;;;5.65;3.08;;;;;;;;;;5074595;28;20020;-78
2021/10/21 02:25:12;;;;;;;3.10;2.80;;;;;;;;;;5072744;28;20032;-76
2021/10/21 02:27:40;;;;;;;3.22;2.47;;;;;;;;;;5074140;28;20060;-78
2021/10/21 02:30:08;;;;;;;3.53;2.40;;;;;;;;;;5079265;28;20029;-78
2021/10/21 02:32:35;;;;;;;2.30;2.10;;;;;;;;;;5077964;28;20435;-78
2021/10/21 02:35:03;;;;;;;4.80;2.40;;;;;;;;;;5077061;28;20036;-76
2021/10/21 02:37:30;;;;;;;2.85;2.63;;;;;;;;;;5076745;28;20025;-78
2021/10/21 02:39:57;;;;;;;2.58;2.15;;;;;;;;;;5081387;28;20032;-78
2021/10/21 02:42:24;;;;;;;2.53;2.33;;;;;;;;;;5077263;28;20021;-78
2021/10/21 02:44:51;;;;;;;3.13;2.50;;;;;;;;;;5076734;28;20050;-77
2021/10/21 02:47:18;;;;;;;2.47;2.28;;;;;;;;;;5076754;28;20020;-77
2021/10/21 02:49:46;;;;;;;2.70;2.50;;;;;;;;;;5076468;28;20103;-77
2021/10/21 02:52:13;;;;;;;2.75;2.55;;;;;;;;;;5076609;28;20065;-77
2021/10/21 02:54:40;;;;;;;3.35;2.80;;;;;;;;;;5076261;28;20075;-77
2021/10/21 02:57:07;;;;;;;3.60;3.05;;;;;;;;;;5078414;28;20025;-78
2021/10/21 02:59:34;;;;;;;5.32;2.90;;;;;;;;;;5079121;28;20103;-78
2021/10/21 03:02:02;;;;;;;3.33;2.63;;;;;;;;;;5080069;28;20025;-77
2021/10/21 03:04:29;;;;;;;2.80;2.60;;;;;;;;;;5075988;28;20027;-77
2021/10/21 03:06:56;;;;;;;2.72;2.50;;;;;;;;;;5075921;28;20091;-77
2021/10/21 03:09:23;;;;;;;2.90;2.70;;;;;;;;;;5076948;28;20442;-77
2021/10/21 03:11:50;;;;;;;2.75;2.55;;;;;;;;;;5075922;28;20025;-77
2021/10/21 03:14:17;;;;;;;2.83;2.50;;;;;;;;;;5075653;28;20048;-75
2021/10/21 03:16:44;;;;;;;4.22;2.63;;;;;;;;;;5075046;28;20098;-74
2021/10/21 03:19:12;;;;;;;6.18;2.45;;;;;;;;;;5075192;28;20021;-75
2021/10/21 03:21:39;;;;;;;2.67;2.30;;;;;;;;;;5073615;28;20519;-75
2021/10/21 03:24:06;;;;;;;4.47;2.30;;;;;;;;;;5074965;28;20044;-75
2021/10/21 03:26:33;;;;;;;2.97;2.70;;;;;;;;;;5074957;28;20485;-74
2021/10/21 03:29:00;;;;;;;3.75;3.13;;;;;;;;;;5074837;28;20074;-74
2021/10/21 03:31:31;;;;;;;3.53;2.58;;;;;;;;;;5074839;28;20416;-74
2021/10/21 03:33:58;;;;;;;2.75;2.42;;;;;;;;;;5074615;28;20017;-75
2021/10/21 03:36:26;;;;;;;2.58;2.38;;;;;;;;;;5073424;28;20048;-76
2021/10/21 03:38:53;;;;;;;3.50;2.88;;;;;;;;;;5074528;28;20096;-75
2021/10/21 03:41:20;;;;;;;2.80;2.60;;;;;;;;;;5073859;28;20032;-74
2021/10/21 03:43:48;;;;;;;4.50;2.90;;;;;;;;;;5073272;28;20025;-75
2021/10/21 03:46:15;;;;;;;2.22;1.92;;;;;;;;;;5073125;28;20024;-74
2021/10/21 03:48:42;;;;;;;2.55;2.35;;;;;;;;;;5074607;28;20016;-74
2021/10/21 03:51:09;;;;;;;3.70;2.40;;;;;;;;;;5073055;28;20028;-74
2021/10/21 03:53:36;;;;;;;2.35;2.20;;;;;;;;;;5072976;28;20065;-74
2021/10/21 03:56:04;;;;;;;2.25;2.10;;;;;;;;;;5074353;28;20013;-74
2021/10/21 03:58:31;;;;;;;2.88;2.10;;;;;;;;;;5074316;28;20091;-74
2021/10/21 04:00:58;;;;;;;3.65;2.45;;;;;;;;;;5074208;28;20047;-75
2021/10/21 04:03:26;;;;;;;3.03;2.72;;;;;;;;;;5074445;28;20044;-75
2021/10/21 04:05:53;;;;;;;4.10;3.17;;;;;;;;;;5073009;28;20393;-74
2021/10/21 04:08:20;;;;;;;3.38;2.70;;;;;;;;;;5074578;28;20027;-75
2021/10/21 04:10:47;;;;;;;2.95;2.72;;;;;;;;;;5074469;28;20074;-72
2021/10/21 04:13:14;;;;;;;3.53;2.75;;;;;;;;;;5074290;28;20481;-72
2021/10/21 04:15:42;;;;;;;3.08;2.55;;;;;;;;;;5074356;28;20025;-71
2021/10/21 04:18:09;;;;;;;2.67;2.47;;;;;;;;;;5074059;28;20501;-72
2021/10/21 04:20:36;;;;;;;3.65;2.60;;;;;;;;;;5073031;28;20501;-72
2021/10/21 04:23:03;;;;;;;2.85;2.65;;;;;;;;;;5074056;28;20021;-73
2021/10/21 04:25:30;;;;;;;3.30;2.90;;;;;;;;;;5072733;28;20438;-72
2021/10/21 04:27:57;;;;;;;3.00;2.80;;;;;;;;;;5073999;28;20024;-72
2021/10/21 04:30:25;;;;;;;3.72;3.17;;;;;;;;;;5073978;28;20028;-72
2021/10/21 04:32:52;;;;;;;4.63;2.75;;;;;;;;;;5073914;28;20025;-71
2021/10/21 04:35:19;;;;;;;2.90;2.70;;;;;;;;;;5073937;28;20150;-71
2021/10/21 04:37:46;;;;;;;3.30;3.00;;;;;;;;;;5073948;28;20052;-72
2021/10/21 04:40:13;;;;;;;3.58;2.88;;;;;;;;;;5073735;28;20082;-72
2021/10/21 04:42:40;;;;;;;3.03;2.80;;;;;;;;;;5073812;28;20493;-72
2021/10/21 04:45:08;;;;;;;3.45;2.80;;;;;;;;;;5073623;28;20029;-71
2021/10/21 04:47:35;;;;;;;3.20;2.60;;;;;;;;;;5073670;28;20021;-72
2021/10/21 04:50:02;;;;;;;3.25;2.88;;;;;;;;;;5073615;28;20028;-73
2021/10/21 04:52:29;;;;;;;3.13;2.40;;;;;;;;;;5072170;28;20397;-72
2021/10/21 04:54:57;;;;;;;2.80;2.53;;;;;;;;;;5072135;28;20029;-72
2021/10/21 04:57:24;;;;;;;2.30;2.20;;;;;;;;;;5073728;28;20028;-71
2021/10/21 04:59:51;;;;;;;2.58;2.38;;;;;;;;;;5073425;28;20074;-71
2021/10/21 05:02:18;;;;;;;5.15;2.80;;;;;;;;;;5073125;28;20025;-73
2021/10/21 05:04:45;;;;;;;3.03;2.45;;;;;;;;;;5073291;28;20028;-72
2021/10/21 05:07:12;;;;;;;2.95;2.40;;;;;;;;;;5073388;28;20020;-72
2021/10/21 05:09:39;;;;;;;3.53;2.33;;;;;;;;;;5073430;28;20017;-72
2021/10/21 05:12:07;;;;;;;2.72;2.28;;;;;;;;;;5073151;28;20033;-73
2021/10/21 05:14:34;;;;;;;6.00;2.60;;;;;;;;;;5073247;28;20028;-73
2021/10/21 05:17:01;;;;;;;3.90;2.42;;;;;;;;;;5071656;28;20413;-72
2021/10/21 05:19:28;;;;;;;4.30;2.42;;;;;;;;;;5073057;28;20553;-72
2021/10/21 05:21:55;;;;;;;3.28;2.42;;;;;;;;;;5071804;28;20028;-72
2021/10/21 05:24:25;;;;;;;2.20;2.10;;;;;;;;;;5073156;28;20044;-71
2021/10/21 05:26:52;;;;;;;3.50;2.40;;;;;;;;;;5073078;28;20027;-72
2021/10/21 05:29:20;;;;;;;2.20;2.05;;;;;;;;;;5073050;28;20017;-73
2021/10/21 05:31:47;;;;;;;5.43;2.55;;;;;;;;;;5071785;28;20409;-72
2021/10/21 05:34:14;;;;;;;2.45;2.25;;;;;;;;;;5073000;28;20025;-71
2021/10/21 05:36:41;;;;;;;2.67;2.28;;;;;;;;;;5071635;28;20024;-71
2021/10/21 05:39:08;;;;;;;2.42;2.22;;;;;;;;;;5072784;28;20056;-71
2021/10/21 05:41:36;;;;;;;3.55;2.42;;;;;;;;;;5072997;28;20025;-71
2021/10/21 05:44:03;;;;;;;2.85;2.55;;;;;;;;;;5073156;28;20525;-72
2021/10/21 05:46:30;;;;;;;2.50;2.40;;;;;;;;;;5072912;28;20024;-72
2021/10/21 05:48:57;;;;;;;2.60;2.40;;;;;;;;;;5072871;28;20035;-72
2021/10/21 05:51:25;;;;;;;2.70;2.50;;;;;;;;;;5072740;28;20521;-73
2021/10/21 05:53:54;;;;;;;3.30;2.83;;;;;;;;;;5071541;28;20492;-72
2021/10/21 05:56:21;;;;;;;2.83;2.22;;;;;;;;;;5072931;28;20028;-72
2021/10/21 05:58:48;;;;;;;3.50;2.50;;;;;;;;;;5072806;28;20108;-73
2021/10/21 06:01:15;;;;;;;2.35;2.20;;;;;;;;;;5072765;28;20021;-72
2021/10/21 06:03:43;;;;;;;2.50;2.30;;;;;;;;;;5074188;28;20047;-72
2021/10/21 06:06:10;;;;;;;3.88;2.30;;;;;;;;;;5076788;28;20370;-72
2021/10/21 06:08:37;;;;;;;5.00;2.25;;;;;;;;;;5076712;28;20024;-72
2021/10/21 06:11:05;;;;;;;3.65;2.58;;;;;;;;;;5075482;28;20127;-73
2021/10/21 06:13:35;;;;;;;2.72;2.53;;;;;;;;;;5075368;28;20077;-73
2021/10/21 06:16:03;;;;;;;4.82;2.42;;;;;;;;;;5075125;28;20057;-72
2021/10/21 06:18:30;;;;;;;3.13;2.03;;;;;;;;;;5076572;28;20045;-73
2021/10/21 06:20:57;;;;;;;2.65;2.17;;;;;;;;;;5075166;28;20044;-72
2021/10/21 06:23:25;;;;;;;3.17;2.03;;;;;;;;;;5076455;28;20017;-72
2021/10/21 06:25:52;;;;;;;2.40;2.20;;;;;;;;;;5074988;28;20393;-71
2021/10/21 06:28:19;;;;;;;3.22;2.10;;;;;;;;;;5075096;28;20400;-71
2021/10/21 06:30:47;;;;;;;3.90;2.40;;;;;;;;;;5076497;28;20442;-71
2021/10/21 06:33:15;;;;;;;4.20;2.15;;;;;;;;;;5075063;28;20071;-71
2021/10/21 06:35:43;;;;;;;2.85;2.38;;;;;;;;;;5076083;28;20111;-71
2021/10/21 06:38:10;;;;;;;5.93;2.90;;;;;;;;;;5076193;28;20029;-71
2021/10/21 06:40:37;;;;;;;3.92;2.90;;;;;;;;;;5076139;28;20029;-71
2021/10/21 06:43:05;;;;;;;2.78;2.58;;;;;;;;;;5075948;28;20024;-71
2021/10/21 06:45:33;;;;;;;3.05;2.45;;;;;;;;;;5074644;28;20017;-71
2021/10/21 06:48:02;;;;;;;2.58;2.40;;;;;;;;;;5075928;28;20017;-72
2021/10/21 06:50:30;;;;;;;3.00;2.50;;;;;;;;;;5075870;28;20040;-72
2021/10/21 06:52:57;;;;;;;3.17;2.72;;;;;;;;;;5074495;28;20070;-71
2021/10/21 06:55:25;;;;;;;3.15;2.53;;;;;;;;;;5074412;28;20111;-71
2021/10/21 06:58:01;;;;;;;2.65;2.17;;;;;;;;;;5075699;28;20029;-72
2021/10/21 07:00:28;;;;;;;2.42;2.33;;;;;;;;;;5075738;28;20489;-72
2021/10/21 07:02:59;;;;;;;2.72;2.50;;;;;;;;;;5075671;28;20032;-71
2021/10/21 07:05:27;;;;;;;5.15;2.70;;;;;;;;;;5074496;28;20028;-72
2021/10/21 07:07:54;;;;;;;7.38;3.92;;;;;;;;;;5074343;28;20032;-71
2021/10/21 07:10:24;;;;;;;4.35;3.00;;;;;;;;;;5075592;28;20028;-72
2021/10/21 07:12:51;;;;;;;2.85;2.28;;;;;;;;;;5075555;28;20029;-72
2021/10/21 07:15:18;;;;;;;2.90;2.70;;;;;;;;;;5074363;28;20051;-72
2021/10/21 07:17:45;;;;;;;3.00;2.80;;;;;;;;;;5075300;28;20044;-72
2021/10/21 07:20:16;;;;;;;4.03;3.30;;;;;;;;;;5074035;28;20039;-72
2021/10/21 07:22:43;;;;;;;2.88;2.50;;;;;;;;;;5074066;28;20032;-72
2021/10/21 07:25:10;;;;;;;2.88;2.67;;;;;;;;;;5075370;28;20048;-72
2021/10/21 07:27:38;;;;;;;2.70;2.50;;;;;;;;;;5075305;28;20109;-71
2021/10/21 07:30:05;;;;;;;3.15;2.72;;;;;;;;;;5073964;28;20028;-72
2021/10/21 07:32:33;;;;;;;4.95;3.38;;;;;;;;;;5073843;28;20024;-72
2021/10/21 07:35:00;;;;;;;3.78;2.92;;;;;;;;;;5075368;28;20396;-71
2021/10/21 07:37:27;;;;;;;6.60;3.40;;;;;;;;;;5075208;28;20619;-71
2021/10/21 07:39:54;;;;;;;3.13;2.92;;;;;;;;;;5075081;28;20473;-71
2021/10/21 07:42:21;;;;;;;3.08;2.80;;;;;;;;;;5075054;28;20012;-71
2021/10/21 07:44:49;;;;;;;3.72;3.13;;;;;;;;;;5075008;28;20024;-71
2021/10/21 07:47:16;;;;;;;3.58;3.10;;;;;;;;;;5073986;28;20016;-72
2021/10/21 07:49:44;;;;;;;3.72;3.42;;;;;;;;;;5073699;28;20021;-72
2021/10/21 07:52:12;;;;;;;4.40;3.10;;;;;;;;;;5073577;28;20086;-72
2021/10/21 07:54:39;;;;;;;3.50;3.20;;;;;;;;;;5075033;28;20032;-72
2021/10/21 07:57:06;;;;;;;3.33;3.08;;;;;;;;;;5073504;28;20034;-72
2021/10/21 07:59:36;;;;;;;2.97;2.65;;;;;;;;;;5074743;28;20020;-72
2021/10/21 08:02:04;;;;;;;4.22;3.00;;;;;;;;;;5074671;28;20029;-72
2021/10/21 08:04:32;;;;;;;4.47;3.50;;;;;;;;;;5074587;28;20013;-72
2021/10/21 08:06:59;;;;;;;4.50;3.90;;;;;;;;;;5074697;28;20511;-72
2021/10/21 08:09:29;;;;;;;3.90;3.70;;;;;;;;;;5074412;28;20115;-72
2021/10/21 08:11:57;;;;;;;3.70;3.40;;;;;;;;;;5074330;28;20605;-72
2021/10/21 08:14:25;;;;;;;3.97;3.60;;;;;;;;;;5074540;28;20035;-72
2021/10/21 08:16:52;;;;;;;3.60;3.30;;;;;;;;;;5074070;28;20044;-73
2021/10/21 08:19:19;;;;;;;4.60;4.20;;;;;;;;;;5074225;28;20047;-73
2021/10/21 08:21:47;;;;;;;4.60;4.20;;;;;;;;;;5074271;28;20032;-73
2021/10/21 08:24:16;;;;;;;4.50;4.10;;;;;;;;;;5074221;28;20021;-72
2021/10/21 08:26:43;;;;;;;4.80;3.90;;;;;;;;;;5073781;28;20020;-70
2021/10/21 08:29:10;;;;;;;4.97;4.00;;;;;;;;;;5074175;28;20085;-72
2021/10/21 08:31:38;;;;;;;4.80;4.40;;;;;;;;;;5074108;28;20024;-72
2021/10/21 08:34:05;;;;;;;5.30;4.90;;;;;;;;;;5072671;28;20028;-72
2021/10/21 08:36:32;;;;;;;5.10;4.80;;;;;;;;;;5072727;28;20024;-71
2021/10/21 08:38:59;;;;;;;5.50;5.20;;;;;;;;;;5072699;28;20035;-72
2021/10/21 08:41:27;;;;;;;6.43;5.82;;;;;;;;;;5073932;28;20027;-71
2021/10/21 08:43:54;;;;;;;5.75;5.45;;;;;;;;;;5072539;28;20025;-72
2021/10/21 08:46:23;;;;;;;5.38;4.88;;;;;;;;;;5073900;28;20474;-72
2021/10/21 08:48:52;;;;;;;5.75;5.03;;;;;;;;;;5073919;28;20017;-72
2021/10/21 08:51:19;;;;;;;5.32;5.00;;;;;;;;;;5073706;28;20485;-74
2021/10/21 08:53:46;;;;;;;6.35;5.55;;;;;;;;;;5073642;28;20024;-73
2021/10/21 08:56:14;;;;;;;5.32;4.88;;;;;;;;;;5072442;28;20024;-73
2021/10/21 08:58:41;;;;;;;6.22;5.63;;;;;;;;;;5072261;28;20035;-73
2021/10/21 09:01:12;;;;;;;5.40;5.00;;;;;;;;;;5072294;28;20027;-73
2021/10/21 09:03:38;;;;;;;;;;;;;;;;;;5074131;28;20044;-73
2021/10/21 09:06:34;;;;;;;7.10;6.28;;;;;;;;;;5073608;28;19912;-73
2021/10/21 09:09:01;;;;;;;6.50;5.90;;;;;;;;;;5073514;28;20021;-73
2021/10/21 09:11:28;;;;;;;7.38;6.68;;;;;;;;;;5072292;28;20115;-71
2021/10/21 09:14:15;;;;;;;9.15;6.90;;;;;;;;;;5072240;28;20028;-72
2021/10/21 09:16:58;;;;;;;6.80;6.30;;;;;;;;;;5073143;28;20044;-71
2021/10/21 09:19:27;;;;;;;6.35;5.80;;;;;;;;;;5073381;28;20284;-72
2021/10/21 09:21:55;;;;;;;6.40;6.00;;;;;;;;;;5071996;28;20046;-72
2021/10/21 09:24:27;;;;;;;6.10;5.50;;;;;;;;;;5073332;28;20091;-72
2021/10/21 09:27:00;;;;;;;6.18;5.78;;;;;;;;;;5073505;28;20024;-72
2021/10/21 09:29:27;;;;;;;6.03;5.63;;;;;;;;;;5073229;28;20024;-73
2021/10/21 09:32:07;;;;;;;5.82;5.45;;;;;;;;;;5071935;28;20047;-72
2021/10/21 09:34:53;;;;;;;6.60;6.10;;;;;;;;;;5072064;28;20021;-73
2021/10/21 09:37:41;;;;;;;6.90;6.50;;;;;;;;;;5071682;28;20036;-73
2021/10/21 09:40:10;;;;;;;6.50;6.10;;;;;;;;;;5073000;28;20024;-72
2021/10/21 09:42:41;;;;;;;7.22;6.72;;;;;;;;;;5071728;28;20082;-71
2021/10/21 09:45:19;;;;;;;7.30;6.68;;;;;;;;;;5071784;28;20020;-72
2021/10/21 09:47:49;;;;;;;6.60;6.18;;;;;;;;;;5073025;28;20021;-72
2021/10/21 09:50:21;;;;;;;6.97;6.50;;;;;;;;;;5073050;28;20027;-72
2021/10/21 09:53:08;;;;;;;7.30;6.70;;;;;;;;;;5071685;28;20024;-72
2021/10/21 09:55:40;;;;;;;6.40;6.00;;;;;;;;;;5062702;28;20554;-72
2021/10/21 09:58:08;;;;;;;6.32;5.93;;;;;;;;;;5071565;28;20031;-72
2021/10/21 10:00:39;;;;;;;6.40;5.97;;;;;;;;;;5072955;28;20021;-73
2021/10/21 10:03:10;;;;;;;6.82;6.38;;;;;;;;;;5072910;28;20027;-72
2021/10/21 10:05:39;;;;;;;6.30;5.93;;;;;;;;;;5072878;28;20058;-72
2021/10/21 10:08:10;;;;;;;6.75;6.30;;;;;;;;;;5072751;28;20520;-72
2021/10/21 10:10:41;;;;;;;6.97;6.32;;;;;;;;;;5072904;28;20047;-72
2021/10/21 10:13:09;;;;;;;6.30;6.00;;;;;;;;;;5071385;28;20020;-71
2021/10/21 10:15:38;;;;;;;6.85;6.45;;;;;;;;;;5070939;28;20024;-72
2021/10/21 10:18:08;;;;;;;7.10;6.63;;;;;;;;;;5071282;28;20131;-72
2021/10/21 10:20:35;;;;;;;;;;;;;;;;;;5071782;28;20075;-72
2021/10/21 10:23:04;;;;;;;7.45;6.95;;;;;;;;;;5072659;28;20281;-72
2021/10/21 10:25:31;;;;;;;7.50;7.00;;;;;;;;;;5072781;28;20042;-73
2021/10/21 10:28:04;;;;;;;7.95;7.40;;;;;;;;;;5071321;28;20028;-72
2021/10/21 10:30:47;;;;;;;7.82;7.30;;;;;;;;;;5071278;28;20454;-71
2021/10/21 10:33:15;;;;;;;8.00;7.57;;;;;;;;;;5071552;28;20024;-71
2021/10/21 10:35:44;;;;;;;8.10;7.65;;;;;;;;;;5072716;28;20081;-72
2021/10/21 10:38:11;;;;;;;9.13;8.48;;;;;;;;;;5054995;28;20025;-72
2021/10/21 10:40:43;;;;;;;8.07;7.50;;;;;;;;;;5072340;28;20400;-72
2021/10/21 10:43:15;;;;;;;9.05;8.20;;;;;;;;;;5072577;28;20104;-72
2021/10/21 10:45:46;;;;;;;8.10;7.60;;;;;;;;;;5071188;28;20074;-72
2021/10/21 10:48:14;;;;;;;7.90;7.50;;;;;;;;;;5072515;28;20543;-72
2021/10/21 10:50:44;;;;;;;8.80;8.27;;;;;;;;;;5073925;28;20108;-71
2021/10/21 10:53:11;;;;;;;8.35;7.80;;;;;;;;;;5076137;28;20020;-71
2021/10/21 10:55:40;;;;;;;8.13;7.63;;;;;;;;;;5075861;28;20021;-71
2021/10/21 10:58:17;;;;;;;9.20;8.60;;;;;;;;;;5074487;28;20034;-73
2021/10/21 11:00:56;;;;;;;8.57;8.02;;;;;;;;;;5074606;28;20089;-72
2021/10/21 11:03:33;;;;;;;9.20;8.65;;;;;;;;;;5074440;28;20389;-72
2021/10/21 11:06:10;;;;;;;9.43;8.73;;;;;;;;;;5075654;28;20033;-71
2021/10/21 11:08:58;;;;;;;9.88;8.95;;;;;;;;;;5074285;28;20021;-71
2021/10/21 11:11:38;;;;;;;10.18;9.48;;;;;;;;;;5075459;28;20099;-71
2021/10/21 11:14:09;;;;;;;9.90;9.20;;;;;;;;;;5075688;28;20115;-71
2021/10/21 11:16:39;;;;;;;9.57;8.90;;;;;;;;;;5075313;28;20109;-71
2021/10/21 11:19:06;;;;;;;9.30;8.80;;;;;;;;;;5074080;28;20670;-72
2021/10/21 11:21:52;;;;;;;9.77;9.20;;;;;;;;;;5075526;28;20381;-72
2021/10/21 11:24:37;;;;;;;11.48;9.98;;;;;;;;;;5074024;28;20021;-71
2021/10/21 11:27:08;;;;;;;10.45;9.65;;;;;;;;;;5074118;28;20024;-72
2021/10/21 11:29:35;;;;;;;11.18;10.07;;;;;;;;;;5074082;28;20028;-72
2021/10/21 11:32:06;;;;;;;10.05;9.45;;;;;;;;;;5075380;28;20086;-71
2021/10/21 11:34:33;;;;;;;11.10;10.40;;;;;;;;;;5074985;28;20028;-72
2021/10/21 11:37:01;;;;;;;10.90;10.20;;;;;;;;;;5075191;28;20029;-71
2021/10/21 11:39:34;;;;;;;11.35;10.60;;;;;;;;;;5075013;28;20473;-72
2021/10/21 11:42:06;;;;;;;10.90;10.10;;;;;;;;;;5075035;28;20025;-72
2021/10/21 11:44:34;;;;;;;11.60;10.63;;;;;;;;;;5073859;28;20027;-73
2021/10/21 11:47:02;;;;;;;10.63;9.85;;;;;;;;;;5073635;28;20031;-73
2021/10/21 11:49:30;;;;;;;10.70;10.00;;;;;;;;;;5074871;28;20035;-73
2021/10/21 11:52:10;;;;;;;11.13;10.52;;;;;;;;;;5074946;28;20393;-72
2021/10/21 11:54:38;;;;;;;11.98;11.10;;;;;;;;;;5074822;28;20025;-71
2021/10/21 11:57:06;;;;;;;11.73;10.93;;;;;;;;;;5074834;28;20051;-72
2021/10/21 11:59:37;;;;;;;12.70;11.90;;;;;;;;;;5074629;28;20093;-71
2021/10/21 12:02:11;;;;;;;12.20;11.50;;;;;;;;;;5074079;28;20013;-71
2021/10/21 12:04:39;;;;;;;12.77;12.07;;;;;;;;;;5074527;28;20024;-71
2021/10/21 12:07:07;;;;;;;13.05;12.20;;;;;;;;;;5074646;28;20101;-71
2021/10/21 12:09:35;;;;;;;12.40;11.70;;;;;;;;;;5074589;28;20033;-71
2021/10/21 12:12:07;;;;;;;13.57;12.85;;;;;;;;;;5074526;28;20017;-71
2021/10/21 12:14:36;;;;;;;12.52;11.70;;;;;;;;;;5074565;28;20028;-72
2021/10/21 12:17:05;;;;;;;12.55;11.75;;;;;;;;;;5072870;28;20128;-73
2021/10/21 12:19:32;;;;;;;12.35;11.65;;;;;;;;;;5072877;28;20059;-73
2021/10/21 12:22:17;;;;;;;12.38;11.57;;;;;;;;;;5074338;28;20051;-71
2021/10/21 12:24:45;;;;;;;13.18;12.30;;;;;;;;;;5073055;28;20024;-72
2021/10/21 12:27:19;;;;;;;12.25;11.48;;;;;;;;;;5074205;28;20486;-71
2021/10/21 12:29:46;;;;;;;13.07;12.18;;;;;;;;;;5072952;28;20512;-71
2021/10/21 12:32:15;;;;;;;13.40;12.45;;;;;;;;;;5074162;28;20023;-72
2021/10/21 12:34:44;;;;;;;13.60;12.70;;;;;;;;;;5072696;28;20455;-72
2021/10/21 12:37:18;;;;;;;12.75;11.98;;;;;;;;;;5074112;28;20031;-72
2021/10/21 12:39:46;;;;;;;14.10;13.10;;;;;;;;;;5073933;28;20384;-72
2021/10/21 12:42:23;;;;;;;12.88;12.18;;;;;;;;;;5072629;28;20020;-73
2021/10/21 12:44:57;;;;;;;13.38;12.40;;;;;;;;;;5073857;28;20027;-73
2021/10/21 12:49:54;;;;;;;13.10;12.38;;;;;;;;;;5073793;28;20035;-73
2021/10/21 12:52:28;;;;;;;13.02;12.13;;;;;;;;;;5072331;28;20078;-72
2021/10/21 12:55:08;;;;;;;12.68;11.98;;;;;;;;;;5073852;28;20024;-72
2021/10/21 12:57:46;;;;;;;12.05;11.48;;;;;;;;;;5072251;28;20029;-71
2021/10/21 13:00:13;;;;;;;12.75;11.95;;;;;;;;;;5073509;28;20029;-72
2021/10/21 13:02:40;;;;;;;12.15;11.50;;;;;;;;;;5072088;28;20478;-72
2021/10/21 13:05:08;;;;;;;12.02;11.43;;;;;;;;;;5073419;28;20020;-72
2021/10/21 13:07:35;;;;;;;12.20;11.50;;;;;;;;;;5072189;28;20016;-73
2021/10/21 13:10:04;;;;;;;11.90;11.27;;;;;;;;;;5073435;28;20023;-72
2021/10/21 13:12:32;;;;;;;12.40;11.68;;;;;;;;;;5072762;28;20450;-72
2021/10/21 13:14:59;;;;;;;11.77;11.18;;;;;;;;;;5071856;28;20052;-72
2021/10/21 13:17:26;;;;;;;12.70;11.77;;;;;;;;;;5073171;28;20559;-71
2021/10/21 13:19:53;;;;;;;12.48;11.88;;;;;;;;;;5073361;28;20077;-72
2021/10/21 13:22:20;;;;;;;12.57;11.82;;;;;;;;;;5073264;28;20056;-72
2021/10/21 13:24:47;;;;;;;12.55;11.85;;;;;;;;;;5071863;28;20028;-72
2021/10/21 13:27:15;;;;;;;12.25;11.70;;;;;;;;;;5071949;28;20024;-71
2021/10/21 13:29:42;;;;;;;13.27;12.38;;;;;;;;;;5073228;28;20020;-71
2021/10/21 13:32:10;;;;;;;12.30;11.70;;;;;;;;;;5071836;28;20075;-72
2021/10/21 13:34:37;;;;;;;12.90;12.20;;;;;;;;;;5073205;28;20024;-72
2021/10/21 13:37:07;;;;;;;13.07;12.38;;;;;;;;;;5073172;28;20024;-72
2021/10/21 13:39:39;;;;;;;12.68;11.95;;;;;;;;;;5072823;28;20055;-72
2021/10/21 13:42:08;;;;;;;12.23;11.57;;;;;;;;;;5073187;28;20103;-72
2021/10/21 13:44:35;;;;;;;12.25;11.57;;;;;;;;;;5073052;28;20093;-72
2021/10/21 13:47:06;;;;;;;12.63;11.68;;;;;;;;;;5072940;28;20048;-73
2021/10/21 13:49:33;;;;;;;12.32;11.52;;;;;;;;;;5073007;28;20020;-72
2021/10/21 13:52:00;;;;;;;11.65;10.98;;;;;;;;;;5072976;28;20028;-72
2021/10/21 13:54:28;;;;;;;11.70;11.10;;;;;;;;;;5073001;28;20032;-72
2021/10/21 13:56:55;;;;;;;11.93;11.20;;;;;;;;;;5072903;28;20025;-72
2021/10/21 13:59:22;;;;;;;11.10;10.38;;;;;;;;;;5072775;28;20020;-72
2021/10/21 14:01:49;;;;;;;11.60;10.90;;;;;;;;;;5071840;28;20169;-74
2021/10/21 14:04:16;;;;;;;11.48;10.88;;;;;;;;;;5072818;28;20036;-72
2021/10/21 14:06:43;;;;;;;11.82;11.10;;;;;;;;;;5072786;28;20029;-71
2021/10/21 14:09:11;;;;;;;11.60;10.90;;;;;;;;;;5072728;28;20036;-71
2021/10/21 14:11:38;;;;;;;12.02;11.35;;;;;;;;;;5072915;28;20017;-71
2021/10/21 14:14:07;;;;;;;11.90;11.30;;;;;;;;;;5072771;28;20035;-71
2021/10/21 14:16:35;;;;;;;13.05;12.25;;;;;;;;;;5072598;28;20051;-72
2021/10/21 14:19:05;;;;;;;12.55;11.77;;;;;;;;;;5072703;28;20008;-72
2021/10/21 14:21:32;;;;;;;12.80;12.00;;;;;;;;;;5071431;28;20023;-72
2021/10/21 14:23:59;;;;;;;12.30;11.60;;;;;;;;;;5072995;28;20021;-72
2021/10/21 14:26:27;;;;;;;12.07;11.38;;;;;;;;;;5076595;28;20028;-72
2021/10/21 14:28:54;;;;;;;12.13;11.52;;;;;;;;;;5076559;28;20485;-72
2021/10/21 14:31:21;;;;;;;12.68;11.90;;;;;;;;;;5075190;28;20024;-72
2021/10/21 14:33:48;;;;;;;13.43;12.65;;;;;;;;;;5076593;28;20432;-72
2021/10/21 14:36:15;;;;;;;12.25;11.45;;;;;;;;;;5076396;28;20059;-71
2021/10/21 14:38:43;;;;;;;12.60;11.80;;;;;;;;;;5076358;28;20039;-72
2021/10/21 14:41:10;;;;;;;12.77;11.98;;;;;;;;;;5074961;28;20512;-72
2021/10/21 14:43:37;;;;;;;12.23;11.73;;;;;;;;;;5076144;28;20028;-72
2021/10/21 14:46:04;;;;;;;12.90;12.20;;;;;;;;;;5076260;28;20427;-72
2021/10/21 14:48:32;;;;;;;13.05;12.05;;;;;;;;;;5076100;28;20040;-71